Time;durP1;ratioP1;P1;durP2;ratioP2;P2;SDS_P1;SDS_P2;PMS_P1;PMS_P2;Temp;Humidity;BMP_temperature;BMP_pressure;BME280_temperature;BME280_humidity;BME280_pressure;Samples;Min_cycle;Max_cycle;Signal;HPM_P1;HPM_P2
2021/06/09 00:00:01;;;;;;;1.00;0.90;;;21.60;58.50;;;;;;3147955;28;20045;-82
2021/06/09 00:01:32;;;;;;;1.27;0.98;;;21.60;58.50;;;;;;3146422;28;20071;-81
2021/06/09 00:03:03;;;;;;;1.45;1.15;;;21.60;58.50;;;;;;3148009;28;20048;-82
2021/06/09 00:04:34;;;;;;;1.25;1.05;;;21.60;58.50;;;;;;3148289;28;20052;-82
2021/06/09 00:06:05;;;;;;;1.92;1.10;;;21.60;58.40;;;;;;3147264;28;20071;-81
2021/06/09 00:09:22;;;;;;;1.10;1.00;;;21.50;58.40;;;;;;3119833;28;20390;-75
2021/06/09 00:10:56;;;;;;;1.00;0.90;;;21.60;59.10;;;;;;3121064;28;20045;-75
2021/06/09 00:12:27;;;;;;;1.30;1.10;;;21.50;58.40;;;;;;3122104;28;20486;-75
2021/06/09 00:13:57;;;;;;;1.55;1.05;;;21.50;58.40;;;;;;3121749;28;20052;-75
2021/06/09 00:15:28;;;;;;;1.20;1.00;;;21.60;58.40;;;;;;3120629;28;20045;-75
2021/06/09 00:17:00;;;;;;;1.20;1.08;;;21.50;58.40;;;;;;3110183;28;20414;-76
2021/06/09 00:18:31;;;;;;;1.00;1.00;;;21.50;58.40;;;;;;3102327;28;20083;-75
2021/06/09 00:20:02;;;;;;;1.00;1.00;;;21.60;58.40;;;;;;3097034;28;20050;-76
2021/06/09 00:21:34;;;;;;;0.93;0.90;;;21.60;58.40;;;;;;3096698;28;20096;-75
2021/06/09 00:23:05;;;;;;;1.15;1.05;;;21.60;58.40;;;;;;3096334;28;20042;-75
2021/06/09 00:24:38;;;;;;;1.35;1.10;;;21.50;58.40;;;;;;3097137;28;20096;-75
2021/06/09 00:26:09;;;;;;;1.08;1.00;;;21.50;58.40;;;;;;3096557;28;20046;-75
2021/06/09 00:27:41;;;;;;;1.25;0.90;;;21.60;58.40;;;;;;3096820;28;20054;-75
2021/06/09 00:29:12;;;;;;;1.20;1.10;;;21.50;58.40;;;;;;3097241;28;20054;-75
2021/06/09 00:30:43;;;;;;;1.92;1.00;;;21.50;58.40;;;;;;3095680;28;20050;-76
2021/06/09 00:32:14;;;;;;;0.95;0.95;;;21.50;58.40;;;;;;3097276;28;20053;-75
2021/06/09 00:33:45;;;;;;;1.20;1.10;;;21.50;58.40;;;;;;3097019;28;20526;-75
2021/06/09 00:35:17;;;;;;;1.20;1.10;;;21.50;58.40;;;;;;3097182;28;20053;-75
2021/06/09 00:36:47;;;;;;;1.65;0.95;;;21.50;58.40;;;;;;3096511;28;20050;-75
2021/06/09 00:38:18;;;;;;;1.23;1.00;;;21.50;58.40;;;;;;3097083;28;20042;-74
2021/06/09 00:39:51;;;;;;;0.95;0.90;;;21.50;58.40;;;;;;3096835;28;20615;-75
2021/06/09 00:41:22;;;;;;;0.95;0.80;;;21.50;58.40;;;;;;3096542;28;20495;-75
2021/06/09 00:43:06;;;;;;;1.10;1.00;;;21.50;58.40;;;;;;3096985;28;20054;-75
2021/06/09 00:44:37;;;;;;;1.20;1.10;;;21.50;58.40;;;;;;3097072;28;20050;-76
2021/06/09 00:46:09;;;;;;;1.20;1.00;;;21.50;58.40;;;;;;3099402;28;20050;-75
2021/06/09 00:47:40;;;;;;;2.08;1.20;;;21.50;58.40;;;;;;3109015;28;20054;-75
2021/06/09 00:49:11;;;;;;;1.20;1.10;;;21.50;58.40;;;;;;3109407;28;20057;-75
2021/06/09 00:50:42;;;;;;;1.15;1.05;;;21.50;58.40;;;;;;3108265;28;20108;-75
2021/06/09 00:52:13;;;;;;;1.20;1.10;;;21.50;58.40;;;;;;3108944;28;20462;-75
2021/06/09 00:53:48;;;;;;;1.02;0.93;;;21.50;58.40;;;;;;3109136;28;20050;-75
2021/06/09 00:55:21;;;;;;;1.00;0.90;;;21.50;58.40;;;;;;3109338;28;20513;-77
2021/06/09 00:56:52;;;;;;;1.15;1.05;;;21.50;58.30;;;;;;3108507;28;20054;-75
2021/06/09 00:58:22;;;;;;;1.30;1.05;;;21.50;58.30;;;;;;3109059;28;20065;-74
2021/06/09 00:59:53;;;;;;;1.23;1.00;;;21.50;58.30;;;;;;3108662;28;20042;-75
2021/06/09 01:01:26;;;;;;;0.93;0.90;;;21.50;58.40;;;;;;3107753;28;20657;-74
2021/06/09 01:02:56;;;;;;;7.03;1.17;;;21.50;58.40;;;;;;3108877;28;20049;-76
2021/06/09 01:04:28;;;;;;;1.13;1.02;;;21.50;58.40;;;;;;3108955;28;20054;-74
2021/06/09 01:05:59;;;;;;;1.92;1.20;;;21.50;58.30;;;;;;3108434;28;20065;-75
2021/06/09 01:07:30;;;;;;;1.20;0.95;;;21.50;58.30;;;;;;3108919;28;20050;-75
2021/06/09 01:09:02;;;;;;;1.15;1.05;;;21.50;58.30;;;;;;3108738;28;20099;-75
2021/06/09 01:10:34;;;;;;;1.10;1.00;;;21.50;58.40;;;;;;3109035;28;20065;-75
2021/06/09 01:12:06;;;;;;;1.13;1.02;;;21.50;58.30;;;;;;3108379;28;20069;-75
2021/06/09 01:13:37;;;;;;;0.80;0.80;;;21.50;58.30;;;;;;3108988;28;20050;-75
2021/06/09 01:15:09;;;;;;;1.85;1.02;;;21.50;58.30;;;;;;3108147;28;20042;-75
2021/06/09 01:16:40;;;;;;;1.10;1.00;;;21.50;58.30;;;;;;3108455;28;20060;-75
2021/06/09 01:18:11;;;;;;;1.00;1.00;;;21.50;58.30;;;;;;3109109;28;20061;-75
2021/06/09 01:19:42;;;;;;;1.13;1.02;;;21.50;58.30;;;;;;3108760;28;20053;-75
2021/06/09 01:21:13;;;;;;;1.13;1.02;;;21.50;58.30;;;;;;3108548;28;20069;-75
2021/06/09 01:22:45;;;;;;;1.05;0.95;;;21.50;58.30;;;;;;3108757;28;20050;-75
2021/06/09 01:24:16;;;;;;;1.40;1.30;;;21.50;58.30;;;;;;3109189;28;20057;-76
2021/06/09 01:25:48;;;;;;;0.90;0.90;;;21.50;58.30;;;;;;3108409;28;20046;-75
2021/06/09 01:27:20;;;;;;;1.30;0.95;;;21.50;58.30;;;;;;3108866;28;20053;-75
2021/06/09 01:28:52;;;;;;;1.20;1.03;;;21.50;58.30;;;;;;3108782;28;20046;-75
2021/06/09 01:30:24;;;;;;;1.10;0.90;;;21.50;58.30;;;;;;3107962;28;20619;-75
2021/06/09 01:31:55;;;;;;;1.27;1.17;;;21.50;58.30;;;;;;3108311;28;20053;-75
2021/06/09 01:33:25;;;;;;;1.20;1.10;;;21.50;58.30;;;;;;3109051;28;20057;-75
2021/06/09 01:34:57;;;;;;;2.75;1.20;;;21.50;58.30;;;;;;3109968;28;20053;-75
2021/06/09 01:36:28;;;;;;;0.88;0.88;;;21.50;58.30;;;;;;3110779;28;20049;-75
2021/06/09 01:38:00;;;;;;;0.80;0.80;;;21.50;58.30;;;;;;3110957;28;20069;-75
2021/06/09 01:39:31;;;;;;;1.13;0.80;;;21.50;58.30;;;;;;3111206;28;20076;-74
2021/06/09 01:41:02;;;;;;;1.10;1.00;;;21.50;58.30;;;;;;3110645;28;20057;-75
2021/06/09 01:42:33;;;;;;;1.95;1.20;;;21.50;58.30;;;;;;3111007;28;20045;-76
2021/06/09 01:44:04;;;;;;;1.10;1.00;;;21.50;58.30;;;;;;3111029;28;20046;-76
2021/06/09 01:45:36;;;;;;;1.67;1.00;;;21.50;58.30;;;;;;3110346;28;20590;-76
2021/06/09 01:47:07;;;;;;;1.15;1.05;;;21.50;58.30;;;;;;3110416;28;20037;-76
2021/06/09 01:48:38;;;;;;;1.42;1.10;;;21.50;58.30;;;;;;3110967;28;20057;-75
2021/06/09 01:50:12;;;;;;;1.20;1.00;;;21.50;58.30;;;;;;3110867;28;20057;-75
2021/06/09 01:51:43;;;;;;;0.80;0.80;;;21.50;58.20;;;;;;3110305;28;20053;-76
2021/06/09 01:53:15;;;;;;;1.42;1.00;;;21.50;58.20;;;;;;3110946;28;20411;-76
2021/06/09 01:54:46;;;;;;;1.40;1.20;;;21.50;58.20;;;;;;3110945;28;20049;-76
2021/06/09 01:56:18;;;;;;;1.13;1.02;;;21.50;58.20;;;;;;3110537;28;20044;-76
2021/06/09 01:57:49;;;;;;;1.02;0.93;;;21.50;58.20;;;;;;3110834;28;20049;-76
2021/06/09 01:59:20;;;;;;;1.10;1.00;;;21.50;58.20;;;;;;3111110;28;20495;-76
2021/06/09 02:00:52;;;;;;;1.08;0.98;;;21.50;58.20;;;;;;3109440;28;20392;-76
2021/06/09 02:02:22;;;;;;;1.80;0.90;;;21.50;58.20;;;;;;3110993;28;20103;-75
2021/06/09 02:03:54;;;;;;;2.97;1.10;;;21.50;58.30;;;;;;3110702;28;20046;-75
2021/06/09 02:05:25;;;;;;;1.25;1.10;;;21.50;58.20;;;;;;3110832;28;20496;-75
2021/06/09 02:06:56;;;;;;;1.55;1.10;;;21.50;58.30;;;;;;3110152;28;20514;-75
2021/06/09 02:08:29;;;;;;;1.15;1.05;;;21.50;58.20;;;;;;3110859;28;20056;-76
2021/06/09 02:09:59;;;;;;;1.10;1.00;;;21.50;58.20;;;;;;3110394;28;20057;-75
2021/06/09 02:11:31;;;;;;;1.92;1.00;;;21.50;58.20;;;;;;3110338;28;20050;-75
2021/06/09 02:13:03;;;;;;;1.27;1.08;;;21.50;58.20;;;;;;3110514;28;20065;-75
2021/06/09 02:14:35;;;;;;;;;;;21.50;58.20;;;;;;3111516;28;20046;-75
2021/06/09 02:16:06;;;;;;;1.02;0.90;;;21.50;58.20;;;;;;3109643;28;19943;-75
2021/06/09 02:17:37;;;;;;;1.15;1.05;;;21.50;58.20;;;;;;3110635;28;20050;-76
2021/06/09 02:19:08;;;;;;;1.08;0.90;;;21.50;58.20;;;;;;3110665;28;20046;-76
2021/06/09 02:20:41;;;;;;;1.15;1.00;;;21.50;58.20;;;;;;3110887;28;20053;-76
2021/06/09 02:22:12;;;;;;;1.13;1.02;;;21.50;58.20;;;;;;3109944;28;20046;-76
2021/06/09 02:23:46;;;;;;;1.13;1.02;;;21.50;58.20;;;;;;3110492;28;20078;-76
2021/06/09 02:25:17;;;;;;;1.20;1.10;;;21.50;58.20;;;;;;3110910;28;20760;-75
2021/06/09 02:26:49;;;;;;;1.52;1.10;;;21.50;58.20;;;;;;3110029;28;20530;-76
2021/06/09 02:28:20;;;;;;;1.10;1.00;;;21.50;58.10;;;;;;3110748;28;20060;-76
2021/06/09 02:29:51;;;;;;;1.35;0.95;;;21.50;58.20;;;;;;3111117;28;20050;-75
2021/06/09 02:31:22;;;;;;;1.15;1.00;;;21.50;58.20;;;;;;3110153;28;20041;-75
2021/06/09 02:32:53;;;;;;;0.90;0.90;;;21.50;58.20;;;;;;3111149;28;20049;-75
2021/06/09 02:34:25;;;;;;;1.17;1.00;;;21.50;58.20;;;;;;3110559;28;20057;-76
2021/06/09 02:35:57;;;;;;;1.73;1.00;;;21.50;58.20;;;;;;3109962;28;20069;-76
2021/06/09 02:37:27;;;;;;;0.95;0.88;;;21.50;58.20;;;;;;3110521;28;20049;-76
2021/06/09 02:39:00;;;;;;;1.00;0.90;;;21.50;58.20;;;;;;3110296;28;20104;-76
2021/06/09 02:40:31;;;;;;;1.10;1.00;;;21.50;58.20;;;;;;3110304;28;20534;-75
2021/06/09 02:42:02;;;;;;;1.20;1.00;;;21.50;58.20;;;;;;3109706;28;20533;-74
2021/06/09 02:43:34;;;;;;;1.20;1.10;;;21.50;58.10;;;;;;3110248;28;20046;-76
2021/06/09 02:45:07;;;;;;;1.25;1.10;;;21.50;58.10;;;;;;3109385;28;20052;-75
2021/06/09 02:46:39;;;;;;;1.00;0.90;;;21.50;58.10;;;;;;3108758;28;20046;-75
2021/06/09 02:48:11;;;;;;;1.30;1.20;;;21.50;58.20;;;;;;3110432;28;20046;-76
2021/06/09 02:49:42;;;;;;;1.20;1.10;;;21.50;58.10;;;;;;3110243;28;20049;-76
2021/06/09 02:51:14;;;;;;;1.08;0.98;;;21.50;58.10;;;;;;3109761;28;20049;-77
2021/06/09 02:52:50;;;;;;;1.75;1.05;;;21.50;58.10;;;;;;3110306;28;20054;-75
2021/06/09 02:54:26;;;;;;;1.70;1.20;;;21.50;58.10;;;;;;3110547;28;20136;-76
2021/06/09 02:56:04;;;;;;;1.17;1.08;;;21.50;58.10;;;;;;3109725;28;20503;-75
2021/06/09 02:57:38;;;;;;;1.45;1.15;;;21.50;58.10;;;;;;3110085;28;20069;-75
2021/06/09 02:59:18;;;;;;;1.20;1.10;;;21.50;58.10;;;;;;3110027;28;20053;-76
2021/06/09 03:00:52;;;;;;;1.08;1.00;;;21.50;58.10;;;;;;3108601;28;20057;-76
2021/06/09 03:02:28;;;;;;;1.10;1.00;;;21.50;58.00;;;;;;3110444;28;20092;-74
2021/06/09 03:04:04;;;;;;;1.10;1.00;;;21.50;58.10;;;;;;3110047;28;20042;-76
2021/06/09 03:05:38;;;;;;;1.17;1.08;;;21.50;58.10;;;;;;3110274;28;20057;-76
2021/06/09 03:07:13;;;;;;;1.10;1.00;;;21.50;58.10;;;;;;3109453;28;20049;-75
2021/06/09 03:08:48;;;;;;;1.20;1.10;;;21.50;58.10;;;;;;3110002;28;20469;-76
2021/06/09 03:10:26;;;;;;;1.20;1.10;;;21.50;58.10;;;;;;3109762;28;20457;-75
2021/06/09 03:11:58;;;;;;;1.20;0.98;;;21.50;58.10;;;;;;3109422;28;20068;-75
2021/06/09 03:13:51;;;;;;;1.50;1.10;;;21.50;58.00;;;;;;3110224;28;20168;-76
2021/06/09 03:15:25;;;;;;;1.10;1.00;;;21.50;58.00;;;;;;3109337;28;20132;-74
2021/06/09 03:16:57;;;;;;;1.20;0.90;;;21.50;58.10;;;;;;3109497;28;20052;-76
2021/06/09 03:18:28;;;;;;;1.33;1.00;;;21.50;58.00;;;;;;3109994;28;20530;-75
2021/06/09 03:20:04;;;;;;;2.80;1.02;;;21.50;58.00;;;;;;3109651;28;20104;-75
2021/06/09 03:21:42;;;;;;;1.10;1.00;;;21.50;58.00;;;;;;3109414;28;20467;-75
2021/06/09 03:23:15;;;;;;;1.20;1.10;;;21.50;58.00;;;;;;3110167;28;20124;-76
2021/06/09 03:24:46;;;;;;;1.00;0.90;;;21.50;58.00;;;;;;3109812;28;20077;-76
2021/06/09 03:26:21;;;;;;;1.55;1.10;;;21.40;58.00;;;;;;3109412;28;20065;-76
2021/06/09 03:27:55;;;;;;;1.02;0.93;;;21.50;58.00;;;;;;3109880;28;20054;-76
2021/06/09 03:29:30;;;;;;;1.30;1.20;;;21.50;58.10;;;;;;3110131;28;20049;-75
2021/06/09 03:31:03;;;;;;;1.10;0.98;;;21.50;58.10;;;;;;3108230;28;20442;-76
2021/06/09 03:32:36;;;;;;;1.10;1.00;;;21.50;58.00;;;;;;3109906;28;20073;-75
2021/06/09 03:34:12;;;;;;;1.25;0.98;;;21.50;58.00;;;;;;3109709;28;20050;-76
2021/06/09 03:35:45;;;;;;;1.35;1.20;;;21.50;58.00;;;;;;3110013;28;20640;-76
2021/06/09 03:37:18;;;;;;;1.50;1.17;;;21.50;58.00;;;;;;3109413;28;20065;-75
2021/06/09 03:38:51;;;;;;;;;;;21.50;58.00;;;;;;3110124;28;20487;-75
2021/06/09 03:40:23;;;;;;;1.13;1.02;;;21.50;58.00;;;;;;3109697;28;19925;-76
2021/06/09 03:41:56;;;;;;;1.20;1.10;;;21.50;58.00;;;;;;3109233;28;20411;-75
2021/06/09 03:43:28;;;;;;;1.45;1.10;;;21.50;57.90;;;;;;3109533;28;20073;-76
2021/06/09 03:44:59;;;;;;;1.00;0.90;;;21.50;58.00;;;;;;3109645;28;20209;-76
2021/06/09 03:46:30;;;;;;;1.20;1.08;;;21.50;58.00;;;;;;3108075;28;20046;-75
2021/06/09 03:48:01;;;;;;;1.00;0.90;;;21.50;58.00;;;;;;3109648;28;20058;-75
2021/06/09 03:49:32;;;;;;;1.15;1.05;;;21.50;57.90;;;;;;3109379;28;20049;-74
2021/06/09 03:51:03;;;;;;;1.20;1.00;;;21.50;57.90;;;;;;3108894;28;20071;-77
2021/06/09 03:52:35;;;;;;;1.20;1.10;;;21.50;57.90;;;;;;3109540;28;20139;-75
2021/06/09 03:54:06;;;;;;;0.88;0.85;;;21.50;57.90;;;;;;3109510;28;20042;-75
2021/06/09 03:55:38;;;;;;;1.10;1.00;;;21.50;58.00;;;;;;3109587;28;20052;-75
2021/06/09 03:57:10;;;;;;;1.80;1.20;;;21.40;57.90;;;;;;3108800;28;20464;-75
2021/06/09 03:58:41;;;;;;;1.10;1.00;;;21.50;58.00;;;;;;3109502;28;20394;-76
2021/06/09 04:00:12;;;;;;;1.17;1.08;;;21.50;57.90;;;;;;3108397;28;20041;-76
2021/06/09 04:01:43;;;;;;;1.17;1.00;;;21.50;57.90;;;;;;3108786;28;20045;-76
2021/06/09 04:03:14;;;;;;;1.17;1.00;;;21.50;57.90;;;;;;3109578;28;20090;-75
2021/06/09 04:04:45;;;;;;;1.35;0.93;;;21.50;57.90;;;;;;3109169;28;20073;-76
2021/06/09 04:06:17;;;;;;;1.23;1.13;;;21.50;57.90;;;;;;3109038;28;20060;-76
2021/06/09 04:07:49;;;;;;;2.33;1.23;;;21.50;57.90;;;;;;3109288;28;20054;-75
2021/06/09 04:09:21;;;;;;;2.75;1.10;;;21.50;57.90;;;;;;3109525;28;20053;-75
2021/06/09 04:10:53;;;;;;;0.80;0.77;;;21.50;57.90;;;;;;3108510;28;20057;-75
2021/06/09 04:12:26;;;;;;;1.10;1.00;;;21.50;57.90;;;;;;3109323;28;20129;-75
2021/06/09 04:13:57;;;;;;;1.20;1.08;;;21.50;57.90;;;;;;3109368;28;20061;-77
2021/06/09 04:15:28;;;;;;;1.33;1.17;;;21.50;57.90;;;;;;3108593;28;20053;-75
2021/06/09 04:16:59;;;;;;;2.47;1.13;;;21.50;57.90;;;;;;3108554;28;20056;-76
2021/06/09 04:18:30;;;;;;;1.02;0.93;;;21.50;57.90;;;;;;3109339;28;20041;-76
2021/06/09 04:20:01;;;;;;;1.15;1.05;;;21.50;57.90;;;;;;3109012;28;20670;-75
2021/06/09 04:21:32;;;;;;;1.08;1.00;;;21.50;57.90;;;;;;3108843;28;20045;-76
2021/06/09 04:23:04;;;;;;;1.00;0.95;;;21.50;57.90;;;;;;3109102;28;20053;-76
2021/06/09 04:24:37;;;;;;;1.08;0.95;;;21.50;57.90;;;;;;3109286;28;20049;-76
2021/06/09 04:26:11;;;;;;;1.20;1.10;;;21.50;57.90;;;;;;3108827;28;20049;-75
2021/06/09 04:27:44;;;;;;;1.30;1.10;;;21.50;57.90;;;;;;3109217;28;20490;-75
2021/06/09 04:29:15;;;;;;;1.20;1.10;;;21.50;57.90;;;;;;3109192;28;20388;-75
2021/06/09 04:30:47;;;;;;;1.23;1.00;;;21.50;57.90;;;;;;3107614;28;20050;-76
2021/06/09 04:32:18;;;;;;;1.10;1.00;;;21.40;57.80;;;;;;3109367;28;20046;-76
2021/06/09 04:33:54;;;;;;;1.25;1.05;;;21.50;57.90;;;;;;3109329;28;20549;-76
2021/06/09 04:35:27;;;;;;;1.42;0.90;;;21.50;57.90;;;;;;3109259;28;20507;-76
2021/06/09 04:36:58;;;;;;;1.10;1.00;;;21.50;57.80;;;;;;3108625;28;20662;-76
2021/06/09 04:38:29;;;;;;;1.20;1.10;;;21.50;57.90;;;;;;3109371;28;20050;-75
2021/06/09 04:39:59;;;;;;;1.20;1.10;;;21.50;57.90;;;;;;3108709;28;20065;-77
2021/06/09 04:41:31;;;;;;;1.30;0.80;;;21.50;57.90;;;;;;3108588;28;20033;-76
2021/06/09 04:43:03;;;;;;;1.20;1.10;;;21.50;57.80;;;;;;3109093;28;20085;-76
2021/06/09 04:44:34;;;;;;;1.63;1.05;;;21.50;57.80;;;;;;3109309;28;20050;-76
2021/06/09 04:46:05;;;;;;;1.40;1.13;;;21.50;57.80;;;;;;3107821;28;20057;-76
2021/06/09 04:47:36;;;;;;;1.33;1.10;;;21.50;57.90;;;;;;3108981;28;20046;-76
2021/06/09 04:49:07;;;;;;;1.20;1.10;;;21.50;57.90;;;;;;3109617;28;20495;-75
2021/06/09 04:50:37;;;;;;;1.10;1.00;;;21.40;57.90;;;;;;3109991;28;20685;-76
2021/06/09 04:52:09;;;;;;;1.30;1.08;;;21.50;57.90;;;;;;3109128;28;20041;-76
2021/06/09 04:53:40;;;;;;;1.45;0.98;;;21.50;57.90;;;;;;3109697;28;20050;-75
2021/06/09 04:55:12;;;;;;;1.33;1.10;;;21.50;57.90;;;;;;3109352;28;20054;-76
2021/06/09 04:56:43;;;;;;;1.10;1.00;;;21.50;58.00;;;;;;3108572;28;20052;-76
2021/06/09 04:58:17;;;;;;;1.23;1.13;;;21.50;57.90;;;;;;3108963;28;20543;-76
2021/06/09 04:59:47;;;;;;;1.10;1.00;;;21.50;57.90;;;;;;3108649;28;20054;-75
2021/06/09 05:01:18;;;;;;;0.95;0.85;;;21.50;57.90;;;;;;3107733;28;20506;-75
2021/06/09 05:02:49;;;;;;;1.02;0.95;;;21.50;57.90;;;;;;3108878;28;20662;-76
2021/06/09 05:04:21;;;;;;;1.13;1.02;;;21.50;57.90;;;;;;3109084;28;20046;-75
2021/06/09 05:05:52;;;;;;;1.10;1.00;;;21.50;57.90;;;;;;3108519;28;20050;-75
2021/06/09 05:07:23;;;;;;;1.65;1.00;;;21.50;57.90;;;;;;3109213;28;20399;-75
2021/06/09 05:08:54;;;;;;;1.10;1.00;;;21.50;57.90;;;;;;3108688;28;20052;-76
2021/06/09 05:10:25;;;;;;;1.20;0.90;;;21.50;57.90;;;;;;3110552;28;20052;-75
2021/06/09 05:11:59;;;;;;;1.10;1.00;;;21.50;57.90;;;;;;3110757;28;20054;-76
2021/06/09 05:13:33;;;;;;;1.25;1.15;;;21.50;57.90;;;;;;3111617;28;20513;-75
2021/06/09 05:15:06;;;;;;;1.00;0.90;;;21.50;57.90;;;;;;3110389;28;20049;-76
2021/06/09 05:16:36;;;;;;;1.58;0.93;;;21.50;57.90;;;;;;3110907;28;20422;-76
2021/06/09 05:18:09;;;;;;;1.20;1.00;;;21.50;57.90;;;;;;3111396;28;20052;-76
2021/06/09 05:19:40;;;;;;;1.52;0.82;;;21.50;58.00;;;;;;3111182;28;20104;-76
2021/06/09 05:21:11;;;;;;;1.13;1.00;;;21.50;57.90;;;;;;3110561;28;20518;-76
2021/06/09 05:22:44;;;;;;;1.05;0.98;;;21.40;57.90;;;;;;3111203;28;20054;-76
2021/06/09 05:24:15;;;;;;;;;;;21.50;57.90;;;;;;3111758;28;20069;-75
2021/06/09 05:25:48;;;;;;;1.00;0.90;;;21.50;57.90;;;;;;3110743;28;19918;-76
2021/06/09 05:27:20;;;;;;;1.20;1.10;;;21.50;57.90;;;;;;3111255;28;20057;-75
2021/06/09 05:28:54;;;;;;;1.15;1.00;;;21.50;57.90;;;;;;3111071;28;20050;-75
2021/06/09 05:30:25;;;;;;;1.20;1.10;;;21.50;57.90;;;;;;3110321;28;20046;-75
2021/06/09 05:31:56;;;;;;;1.30;1.20;;;21.50;57.90;;;;;;3110571;28;20430;-75
2021/06/09 05:33:28;;;;;;;1.23;1.13;;;21.50;57.90;;;;;;3111170;28;20042;-75
2021/06/09 05:34:59;;;;;;;1.10;1.00;;;21.50;57.90;;;;;;3111215;28;20100;-76
2021/06/09 05:36:30;;;;;;;1.20;1.10;;;21.50;57.90;;;;;;3110871;28;20426;-76
2021/06/09 05:38:01;;;;;;;1.13;1.02;;;21.50;57.90;;;;;;3110919;28;20478;-75
2021/06/09 05:39:33;;;;;;;1.20;1.05;;;21.50;57.90;;;;;;3110939;28;20077;-75
2021/06/09 05:41:04;;;;;;;1.27;1.00;;;21.50;57.90;;;;;;3110494;28;20406;-76
2021/06/09 05:42:35;;;;;;;1.23;1.00;;;21.50;58.00;;;;;;3111045;28;20181;-76
2021/06/09 05:44:08;;;;;;;1.30;1.00;;;21.50;58.00;;;;;;3110901;28;20050;-75
2021/06/09 05:45:38;;;;;;;1.98;1.10;;;21.50;58.00;;;;;;3110247;28;20495;-76
2021/06/09 05:47:10;;;;;;;1.20;1.10;;;21.50;58.00;;;;;;3110474;28;20053;-75
2021/06/09 05:48:41;;;;;;;1.08;0.98;;;21.50;58.00;;;;;;3110815;28;20453;-77
2021/06/09 05:50:13;;;;;;;1.08;0.98;;;21.50;57.90;;;;;;3110655;28;20049;-75
2021/06/09 05:51:45;;;;;;;1.10;1.00;;;21.50;58.00;;;;;;3110140;28;20100;-74
2021/06/09 05:53:16;;;;;;;1.20;0.98;;;21.50;57.90;;;;;;3111153;28;20134;-75
2021/06/09 05:54:47;;;;;;;1.23;1.02;;;21.50;58.00;;;;;;3110776;28;20053;-76
2021/06/09 05:56:18;;;;;;;1.05;0.93;;;21.50;58.00;;;;;;3110318;28;20746;-76
2021/06/09 05:57:49;;;;;;;1.38;1.08;;;21.50;58.00;;;;;;3110745;28;20046;-75
2021/06/09 05:59:22;;;;;;;1.30;1.10;;;21.50;58.00;;;;;;3111094;28;20057;-75
2021/06/09 06:00:54;;;;;;;1.48;1.20;;;21.50;58.00;;;;;;3109129;28;20046;-76
2021/06/09 06:02:27;;;;;;;1.10;1.00;;;21.50;58.50;;;;;;3110910;28;20128;-75
2021/06/09 06:03:59;;;;;;;1.20;1.10;;;21.50;57.90;;;;;;3110876;28;20135;-75
2021/06/09 06:05:30;;;;;;;1.40;1.10;;;21.50;57.90;;;;;;3111009;28;20050;-75
2021/06/09 06:07:01;;;;;;;0.95;0.90;;;21.50;57.90;;;;;;3110172;28;20053;-75
2021/06/09 06:08:32;;;;;;;1.13;1.00;;;21.50;57.90;;;;;;3110704;28;20050;-75
2021/06/09 06:10:04;;;;;;;1.20;1.10;;;21.50;57.90;;;;;;3110692;28;20486;-76
2021/06/09 06:11:35;;;;;;;1.15;1.00;;;21.50;57.90;;;;;;3110226;28;20681;-75
2021/06/09 06:13:07;;;;;;;1.52;1.20;;;21.50;57.90;;;;;;3110651;28;20422;-76
2021/06/09 06:14:39;;;;;;;1.50;1.20;;;21.50;57.90;;;;;;3110912;28;20046;-76
2021/06/09 06:16:12;;;;;;;1.20;1.10;;;21.50;57.90;;;;;;3109439;28;20403;-75
2021/06/09 06:17:44;;;;;;;;;;;21.50;57.90;;;;;;3111022;28;20426;-75
2021/06/09 06:19:15;;;;;;;1.27;1.17;;;21.50;57.90;;;;;;3110672;28;19921;-76
2021/06/09 06:20:46;;;;;;;1.10;0.90;;;21.50;57.90;;;;;;3109756;28;20049;-75
2021/06/09 06:22:17;;;;;;;2.10;1.00;;;21.50;57.90;;;;;;3110642;28;20042;-75
2021/06/09 06:23:48;;;;;;;2.50;0.95;;;21.60;57.90;;;;;;3110497;28;20046;-75
2021/06/09 06:25:23;;;;;;;1.10;1.00;;;21.50;58.50;;;;;;3110691;28;20046;-75
2021/06/09 06:26:54;;;;;;;1.02;0.95;;;21.50;57.90;;;;;;3110100;28;20054;-76
2021/06/09 06:28:25;;;;;;;1.23;0.85;;;21.50;57.90;;;;;;3110439;28;20054;-75
2021/06/09 06:29:58;;;;;;;1.80;1.00;;;21.50;57.90;;;;;;3110156;28;20050;-75
2021/06/09 06:31:29;;;;;;;1.40;0.95;;;21.50;57.90;;;;;;3109152;28;20061;-76
2021/06/09 06:33:00;;;;;;;1.08;0.90;;;21.50;57.90;;;;;;3110594;28;20050;-75
2021/06/09 06:34:32;;;;;;;1.20;0.90;;;21.50;57.90;;;;;;3110408;28;20046;-75
2021/06/09 06:36:04;;;;;;;1.27;1.00;;;21.50;57.90;;;;;;3109947;28;20054;-76
2021/06/09 06:37:35;;;;;;;1.53;1.27;;;21.50;57.90;;;;;;3110373;28;20053;-76
2021/06/09 06:39:06;;;;;;;1.40;1.27;;;21.50;57.90;;;;;;3110363;28;20057;-75
2021/06/09 06:40:37;;;;;;;1.05;0.95;;;21.50;57.90;;;;;;3110197;28;20206;-76
2021/06/09 06:42:08;;;;;;;1.25;1.08;;;21.50;57.90;;;;;;3109790;28;20046;-77
2021/06/09 06:43:40;;;;;;;1.13;0.90;;;21.50;57.90;;;;;;3110387;28;20423;-76
2021/06/09 06:45:13;;;;;;;1.20;0.90;;;21.50;57.90;;;;;;3109838;28;20116;-76
2021/06/09 06:46:48;;;;;;;1.67;1.25;;;21.50;57.90;;;;;;3109783;28;20053;-76
2021/06/09 06:48:19;;;;;;;1.40;1.17;;;21.50;57.90;;;;;;3110318;28;20050;-76
2021/06/09 06:49:50;;;;;;;2.20;1.08;;;21.50;57.90;;;;;;3109581;28;20046;-75
2021/06/09 06:51:22;;;;;;;1.65;1.00;;;21.50;57.90;;;;;;3109832;28;20054;-76
2021/06/09 06:52:53;;;;;;;1.33;1.10;;;21.50;57.90;;;;;;3110161;28;20050;-76
2021/06/09 06:54:24;;;;;;;1.20;0.95;;;21.60;57.90;;;;;;3110361;28;20046;-75
2021/06/09 06:55:58;;;;;;;1.20;1.10;;;21.50;57.90;;;;;;3109831;28;20132;-76
2021/06/09 06:57:30;;;;;;;1.13;0.90;;;21.50;57.90;;;;;;3110114;28;20053;-76
2021/06/09 06:59:01;;;;;;;1.17;0.93;;;21.60;57.80;;;;;;3110142;28;20050;-76
2021/06/09 07:00:33;;;;;;;1.45;1.00;;;21.60;57.80;;;;;;3109278;28;20312;-75
2021/06/09 07:02:04;;;;;;;1.63;1.00;;;21.50;57.80;;;;;;3109611;28;20049;-76
2021/06/09 07:03:36;;;;;;;1.10;1.00;;;21.50;57.90;;;;;;3110113;28;20053;-75
2021/06/09 07:05:09;;;;;;;1.07;0.90;;;21.60;57.90;;;;;;3110153;28;20057;-76
2021/06/09 07:06:41;;;;;;;1.30;1.17;;;21.50;57.80;;;;;;3109621;28;20134;-76
2021/06/09 07:08:12;;;;;;;1.48;1.05;;;21.60;57.90;;;;;;3110054;28;20050;-75
2021/06/09 07:09:44;;;;;;;1.60;1.10;;;21.50;57.80;;;;;;3134955;22;20038;-81
2021/06/09 07:11:15;;;;;;;1.70;1.00;;;21.50;57.90;;;;;;3160597;28;20048;-83
2021/06/09 07:12:46;;;;;;;1.33;1.00;;;21.60;57.90;;;;;;3161531;28;20048;-82
2021/06/09 07:14:17;;;;;;;1.25;1.02;;;21.60;57.80;;;;;;3161305;28;20093;-80
2021/06/09 07:15:52;;;;;;;1.48;1.00;;;21.50;57.80;;;;;;3159459;28;20048;-82
2021/06/09 07:17:23;;;;;;;1.42;1.00;;;21.60;57.80;;;;;;3161202;28;20048;-80
2021/06/09 07:18:54;;;;;;;1.25;1.00;;;21.60;57.80;;;;;;3160753;28;20044;-82
2021/06/09 07:20:25;;;;;;;1.50;1.20;;;21.60;57.80;;;;;;3160960;28;20417;-82
2021/06/09 07:21:56;;;;;;;1.75;1.23;;;21.60;57.80;;;;;;3159814;28;20048;-82
2021/06/09 07:23:28;;;;;;;1.00;0.90;;;21.60;57.80;;;;;;3160745;28;20492;-82
2021/06/09 07:24:58;;;;;;;1.77;1.02;;;21.60;57.90;;;;;;3160803;28;20048;-82
2021/06/09 07:26:32;;;;;;;1.45;1.10;;;21.50;57.80;;;;;;3160593;28;20047;-82
2021/06/09 07:28:04;;;;;;;1.17;0.98;;;21.60;57.80;;;;;;3160519;28;20052;-82
2021/06/09 07:29:37;;;;;;;0.90;0.90;;;21.60;57.80;;;;;;3160577;28;20393;-83
2021/06/09 07:31:09;;;;;;;1.13;1.02;;;21.60;57.80;;;;;;3159723;28;20047;-82
2021/06/09 07:32:42;;;;;;;0.82;0.82;;;21.60;57.80;;;;;;3160576;28;20652;-81
2021/06/09 07:34:13;;;;;;;1.10;1.00;;;21.60;57.90;;;;;;3160662;28;20048;-82
2021/06/09 07:35:44;;;;;;;2.15;1.00;;;21.50;57.80;;;;;;3160610;28;20051;-83
2021/06/09 07:37:17;;;;;;;1.13;0.98;;;21.60;57.80;;;;;;3159973;28;20070;-81
2021/06/09 07:38:51;;;;;;;2.13;0.95;;;21.60;57.80;;;;;;3160092;28;20087;-81
2021/06/09 07:40:23;;;;;;;1.08;0.98;;;21.60;57.80;;;;;;3160422;28;20056;-82
2021/06/09 07:41:54;;;;;;;1.33;1.17;;;21.50;57.80;;;;;;3159997;28;20052;-82
2021/06/09 07:43:28;;;;;;;0.93;0.93;;;21.50;57.80;;;;;;3160202;28;20048;-83
2021/06/09 07:45:01;;;;;;;1.08;0.80;;;21.60;57.80;;;;;;3160606;28;20432;-82
2021/06/09 07:46:34;;;;;;;0.90;0.90;;;21.60;57.80;;;;;;3159708;28;20043;-82
2021/06/09 07:48:06;;;;;;;0.95;0.95;;;21.60;57.80;;;;;;3160379;28;20500;-82
2021/06/09 07:49:37;;;;;;;1.45;0.93;;;21.60;57.80;;;;;;3160306;28;20097;-83
2021/06/09 07:51:08;;;;;;;0.88;0.88;;;21.60;57.70;;;;;;3159795;28;20044;-83
2021/06/09 07:52:39;;;;;;;1.23;0.90;;;21.60;57.70;;;;;;3160566;28;20448;-82
2021/06/09 07:54:11;;;;;;;1.20;0.90;;;21.60;57.70;;;;;;3160618;28;20051;-82
2021/06/09 07:55:43;;;;;;;2.58;1.00;;;21.60;57.70;;;;;;3160424;28;20063;-79
2021/06/09 07:57:14;;;;;;;1.17;0.90;;;21.60;57.70;;;;;;3160025;28;20051;-82
2021/06/09 07:58:45;;;;;;;1.17;1.00;;;21.60;57.70;;;;;;3160256;28;20048;-82
2021/06/09 08:00:17;;;;;;;1.10;1.00;;;21.60;57.70;;;;;;3159351;28;20048;-83